Time;durP1;ratioP1;P1;durP2;ratioP2;P2;SDS_P1;SDS_P2;PMS_P1;PMS_P2;Temp;Humidity;BMP_temperature;BMP_pressure;BME280_temperature;BME280_humidity;BME280_pressure;Samples;Min_cycle;Max_cycle;Signal;HPM_P1;HPM_P2
2023/08/28 00:01:16;;;;;;;4.20;2.85;;;;;;;11.20;96.34;100799.81;4926062;28;20051;-72
2023/08/28 00:03:44;;;;;;;4.82;2.97;;;;;;;11.18;95.97;100804.66;4959637;28;20519;-73
2023/08/28 00:06:10;;;;;;;6.28;3.65;;;;;;;11.17;96.02;100803.03;4945648;28;20066;-74
2023/08/28 00:08:36;;;;;;;4.53;2.85;;;;;;;11.16;96.09;100800.63;4931968;28;20153;-73
2023/08/28 00:11:02;;;;;;;4.35;3.30;;;;;;;11.14;95.82;100803.56;4943157;28;20035;-75
2023/08/28 00:13:28;;;;;;;9.82;3.10;;;;;;;11.15;95.66;100802.50;4960403;28;20134;-73
2023/08/28 00:15:53;;;;;;;4.53;3.03;;;;;;;11.13;95.73;100801.19;4949092;28;20110;-74
2023/08/28 00:18:19;;;;;;;3.88;3.47;;;;;;;11.09;95.84;100795.53;4939930;28;20923;-72
2023/08/28 00:20:45;;;;;;;4.30;3.50;;;;;;;11.12;96.15;100789.66;4937843;28;20031;-73
2023/08/28 00:23:10;;;;;;;;;;;;;;;11.08;96.12;100799.31;4925870;28;20765;-72
2023/08/28 00:25:36;;;;;;;5.07;3.63;;;;;;;11.06;96.36;100798.78;4963565;28;20015;-73
2023/08/28 00:28:02;;;;;;;6.93;3.83;;;;;;;11.09;96.80;100800.91;4939302;28;20042;-73
2023/08/28 00:30:28;;;;;;;;;;;;;;;11.07;96.27;100803.06;4953138;28;20554;-73
2023/08/28 00:32:54;;;;;;;4.05;3.30;;;;;;;11.07;96.38;100803.06;4937349;28;19941;-72
2023/08/28 00:35:21;;;;;;;7.53;3.72;;;;;;;11.08;96.26;100799.31;4911931;28;20046;-74
2023/08/28 00:37:46;;;;;;;5.18;3.28;;;;;;;11.04;96.31;100795.56;4959257;28;20039;-73
2023/08/28 00:40:13;;;;;;;4.78;3.90;;;;;;;11.01;96.12;100803.34;4945707;28;20110;-73
2023/08/28 00:42:40;;;;;;;8.02;3.38;;;;;;;10.99;95.95;100794.78;4944461;28;20034;-73
2023/08/28 00:45:06;;;;;;;12.20;3.75;;;;;;;10.94;95.84;100795.56;4948924;28;20476;-73
2023/08/28 00:47:32;;;;;;;5.32;3.33;;;;;;;10.97;96.39;100792.34;4923951;28;20043;-73
2023/08/28 00:49:58;;;;;;;8.73;3.65;;;;;;;10.93;96.44;100789.41;4926233;28;20027;-73
2023/08/28 00:52:25;;;;;;;8.95;3.55;;;;;;;10.95;96.68;100789.13;4931848;28;20146;-76
2023/08/28 00:54:51;;;;;;;7.70;3.80;;;;;;;10.91;96.76;100780.06;4918760;28;20655;-75
2023/08/28 00:57:17;;;;;;;4.97;3.47;;;;;;;10.93;96.91;100788.63;4946590;28;20047;-74
2023/08/28 00:59:44;;;;;;;4.82;2.97;;;;;;;10.93;96.63;100791.28;4930721;28;20042;-73
2023/08/28 01:02:10;;;;;;;7.93;3.90;;;;;;;10.91;96.63;100798.81;4943244;28;20126;-74
2023/08/28 01:04:35;;;;;;;5.32;2.95;;;;;;;10.91;96.73;100793.44;4912811;28;20039;-73
2023/08/28 01:07:20;;;;;;;5.93;3.13;;;;;;;10.98;97.11;100796.66;4963662;28;20365;-73
2023/08/28 01:09:54;;;;;;;6.97;3.38;;;;;;;10.99;97.15;100790.22;4938825;28;20031;-73
2023/08/28 01:12:30;;;;;;;5.32;3.35;;;;;;;11.01;97.35;100792.63;4931485;28;20043;-73
2023/08/28 01:15:11;;;;;;;7.63;3.30;;;;;;;10.99;97.12;100792.09;4960847;28;20495;-75
2023/08/28 01:17:40;;;;;;;5.00;2.95;;;;;;;10.97;97.20;100792.34;4962146;28;20042;-72
2023/08/28 01:20:12;;;;;;;6.70;3.60;;;;;;;10.97;97.12;100797.69;4945711;28;20089;-73
2023/08/28 01:22:58;;;;;;;6.22;2.75;;;;;;;11.03;97.64;100796.63;4929701;28;20039;-73
2023/08/28 01:25:25;;;;;;;4.43;2.58;;;;;;;10.99;97.37;100784.06;4960027;28;20712;-73
2023/08/28 01:27:52;;;;;;;3.97;3.00;;;;;;;11.03;97.66;100783.22;4947915;28;20037;-73
2023/08/28 01:30:19;;;;;;;6.97;3.47;;;;;;;11.07;97.94;100786.97;4939089;28;20437;-73
2023/08/28 01:32:45;;;;;;;8.18;3.05;;;;;;;11.09;97.60;100792.06;4944802;28;20029;-74
2023/08/28 01:35:17;;;;;;;6.75;3.22;;;;;;;11.05;97.24;100789.13;4948166;28;20039;-74
2023/08/28 01:37:45;;;;;;;4.88;2.75;;;;;;;11.02;96.71;100780.81;4961882;28;20043;-74
2023/08/28 01:40:15;;;;;;;5.18;2.95;;;;;;;11.02;96.91;100778.94;4963211;28;20043;-73
2023/08/28 01:42:43;;;;;;;8.13;3.20;;;;;;;10.98;96.78;100769.84;4950789;28;20039;-73
2023/08/28 01:45:10;;;;;;;8.20;3.72;;;;;;;10.98;97.08;100769.84;4928833;28;20113;-72
2023/08/28 01:47:36;;;;;;;5.82;3.00;;;;;;;11.04;97.58;100770.63;4935136;28;20125;-73
2023/08/28 01:50:02;;;;;;;4.40;3.05;;;;;;;11.03;97.23;100780.53;4945263;28;20042;-74
2023/08/28 01:52:29;;;;;;;5.82;3.83;;;;;;;11.14;98.13;100787.50;4961950;28;20042;-73
2023/08/28 01:54:55;;;;;;;3.63;3.03;;;;;;;11.18;98.16;100780.53;4945821;28;20057;-75
2023/08/28 01:57:22;;;;;;;7.97;4.00;;;;;;;11.22;98.28;100796.84;4930853;28;20045;-74
2023/08/28 01:59:48;;;;;;;7.95;3.30;;;;;;;11.25;98.41;100788.28;4946022;28;20412;-74
2023/08/28 02:02:14;;;;;;;4.85;3.40;;;;;;;11.28;98.73;100793.09;4945371;28;20045;-74
2023/08/28 02:04:39;;;;;;;6.13;3.63;;;;;;;11.33;98.99;100790.41;4947195;28;20113;-75
2023/08/28 02:07:05;;;;;;;5.00;3.83;;;;;;;11.37;99.04;100785.28;4959676;28;20127;-74
2023/08/28 02:09:31;;;;;;;5.60;3.63;;;;;;;11.40;99.20;100780.19;4946561;28;20035;-72
2023/08/28 02:11:56;;;;;;;7.93;4.70;;;;;;;11.44;99.34;100775.06;4960529;28;20041;-75
2023/08/28 02:14:22;;;;;;;5.72;4.40;;;;;;;11.47;99.43;100769.97;4948782;28;20058;-73
2023/08/28 02:16:47;;;;;;;5.50;3.65;;;;;;;11.51;99.32;100778.25;4933760;28;20038;-75
2023/08/28 02:19:13;;;;;;;5.78;4.55;;;;;;;11.55;99.48;100779.31;4932804;28;20043;-73
2023/08/28 02:21:39;;;;;;;4.85;3.88;;;;;;;11.57;99.32;100785.19;4951037;28;20045;-75
2023/08/28 02:24:05;;;;;;;6.53;4.07;;;;;;;11.59;99.46;100783.06;4951697;28;20120;-73
2023/08/28 02:26:30;;;;;;;6.53;3.88;;;;;;;11.62;99.45;100782.50;4946107;28;20031;-74
2023/08/28 02:28:56;;;;;;;8.80;4.93;;;;;;;11.64;99.57;100783.03;4959362;28;20137;-75
2023/08/28 02:31:22;;;;;;;7.05;5.18;;;;;;;11.65;99.56;100781.13;4959632;28;20720;-75
2023/08/28 02:33:48;;;;;;;;;;;;;;;11.70;99.53;100767.72;4964842;28;20403;-75
2023/08/28 02:36:15;;;;;;;7.63;4.93;;;;;;;11.73;99.60;100767.16;4960684;28;20015;-73
2023/08/28 02:38:41;;;;;;;6.18;5.30;;;;;;;11.76;99.79;100778.13;4964944;28;20070;-74
2023/08/28 02:41:07;;;;;;;11.13;5.75;;;;;;;11.80;99.82;100774.91;4949461;28;20034;-73
2023/08/28 02:43:33;;;;;;;;;;;;;;;11.85;99.94;100793.69;4948238;28;20066;-74
2023/08/28 02:45:59;;;;;;;10.43;5.65;;;;;;;11.85;99.99;100793.69;4948136;28;20036;-73
2023/08/28 02:48:26;;;;;;;6.57;5.43;;;;;;;11.89;100.00;100781.34;4958122;28;20085;-73
2023/08/28 02:50:52;;;;;;;9.98;5.75;;;;;;;11.91;100.00;100790.69;4946690;28;20114;-74
2023/08/28 02:53:18;;;;;;;8.95;6.82;;;;;;;11.92;100.00;100781.59;4931341;28;20121;-75
2023/08/28 02:56:23;;;;;;;8.52;5.88;;;;;;;11.97;100.00;100791.47;4947695;28;20050;-75
2023/08/28 02:58:50;;;;;;;13.20;6.60;;;;;;;11.97;100.00;100788.78;4946917;28;20384;-73
2023/08/28 03:01:17;;;;;;;7.40;6.10;;;;;;;12.02;100.00;100791.47;4958301;28;20670;-73
2023/08/28 03:03:43;;;;;;;11.82;6.35;;;;;;;12.04;100.00;100786.59;4931017;28;20575;-74
2023/08/28 03:06:09;;;;;;;7.78;5.53;;;;;;;12.07;100.00;100785.25;4945009;28;20069;-74
2023/08/28 03:08:35;;;;;;;9.48;5.80;;;;;;;12.07;100.00;100778.00;4960888;28;20113;-73
2023/08/28 03:11:01;;;;;;;9.90;6.10;;;;;;;12.12;100.00;100786.00;4930571;28;20395;-73
2023/08/28 03:13:26;;;;;;;7.70;5.40;;;;;;;12.12;100.00;100791.38;4962500;28;20074;-72
2023/08/28 03:15:52;;;;;;;;;;;;;;;12.16;100.00;100786.25;4950930;28;20105;-72
2023/08/28 03:18:18;;;;;;;7.40;5.68;;;;;;;12.15;100.00;100788.16;4945985;28;19918;-73
2023/08/28 03:20:44;;;;;;;10.65;6.22;;;;;;;12.18;100.00;100794.84;4947691;28;20109;-72
2023/08/28 03:23:10;;;;;;;14.88;7.32;;;;;;;12.17;100.00;100799.41;4947234;28;20090;-74
2023/08/28 03:25:36;;;;;;;7.18;5.50;;;;;;;12.20;99.74;100792.69;4945139;28;20480;-73
2023/08/28 03:28:06;;;;;;;9.13;6.03;;;;;;;12.19;99.68;100799.94;4946386;28;20476;-73
2023/08/28 03:30:32;;;;;;;7.82;5.80;;;;;;;12.17;99.34;100812.81;4960254;28;20487;-73
2023/08/28 03:33:00;;;;;;;6.68;5.32;;;;;;;12.14;99.27;100813.41;4932288;28;20415;-73
2023/08/28 03:35:26;;;;;;;;;;;;;;;12.14;98.69;100817.97;4930439;28;20518;-74
2023/08/28 03:37:52;;;;;;;8.00;4.90;;;;;;;12.14;99.02;100816.09;4931246;28;19918;-75
2023/08/28 03:40:17;;;;;;;8.85;5.63;;;;;;;12.13;98.66;100830.59;4943656;28;20046;-73
2023/08/28 03:42:43;;;;;;;7.80;5.85;;;;;;;12.11;98.75;100838.09;4945503;28;20042;-75
2023/08/28 03:45:09;;;;;;;8.93;5.60;;;;;;;12.09;98.92;100847.53;4962838;28;20035;-74
2023/08/28 03:47:35;;;;;;;7.45;5.15;;;;;;;12.07;98.50;100847.81;4930418;28;20038;-76
2023/08/28 03:50:00;;;;;;;8.38;5.88;;;;;;;12.06;98.45;100845.38;4930163;28;20035;-73
2023/08/28 03:52:26;;;;;;;9.88;6.55;;;;;;;12.07;98.60;100849.69;4927118;28;20523;-75
2023/08/28 03:54:52;;;;;;;9.63;6.78;;;;;;;12.09;98.76;100851.00;4948479;28;20043;-75
2023/08/28 03:57:18;;;;;;;8.60;7.15;;;;;;;12.08;98.63;100849.41;4945812;28;20046;-74
2023/08/28 03:59:44;;;;;;;9.02;6.03;;;;;;;12.05;98.73;100847.25;4948456;28;20042;-75
2023/08/28 04:02:09;;;;;;;8.07;5.47;;;;;;;12.05;98.65;100854.50;4946548;28;20498;-73
2023/08/28 04:04:35;;;;;;;10.77;6.57;;;;;;;12.06;98.95;100856.94;4945789;28;20046;-73
2023/08/28 04:07:03;;;;;;;9.65;6.80;;;;;;;12.10;98.77;100868.72;4948592;28;20041;-74
2023/08/28 04:09:30;;;;;;;10.68;6.50;;;;;;;12.08;98.85;100865.50;4943435;28;20039;-74
2023/08/28 04:11:56;;;;;;;10.15;7.57;;;;;;;12.10;99.03;100879.44;4960865;28;20042;-74
2023/08/28 04:14:22;;;;;;;9.05;6.90;;;;;;;12.10;99.18;100868.72;4944789;28;20058;-73
2023/08/28 04:16:53;;;;;;;11.52;7.13;;;;;;;12.16;99.27;100875.66;4918546;28;20150;-72
2023/08/28 04:19:19;;;;;;;10.27;6.97;;;;;;;12.17;99.52;100879.94;4957608;28;20121;-74
2023/08/28 04:21:44;;;;;;;8.73;6.30;;;;;;;12.19;99.55;100891.22;4946174;28;20880;-74
2023/08/28 04:24:10;;;;;;;8.70;7.10;;;;;;;12.19;99.72;100888.56;4960776;28;20559;-74
2023/08/28 04:26:36;;;;;;;9.82;7.45;;;;;;;12.22;99.64;100887.97;4941752;28;20041;-74
2023/08/28 04:29:02;;;;;;;10.88;7.85;;;;;;;12.24;99.02;100885.81;4944465;28;20038;-73
2023/08/28 04:31:28;;;;;;;13.77;9.05;;;;;;;12.26;99.52;100881.00;4941274;28;20121;-73
2023/08/28 04:33:53;;;;;;;10.98;8.05;;;;;;;12.28;99.62;100881.50;4944343;28;20061;-76
2023/08/28 04:36:19;;;;;;;10.88;8.18;;;;;;;12.32;99.73;100875.56;4945282;28;20775;-73
2023/08/28 04:38:44;;;;;;;9.07;7.97;;;;;;;12.32;99.66;100871.00;4960691;28;20053;-73
2023/08/28 04:41:10;;;;;;;;;;;;;;;12.31;99.68;100874.78;4925218;28;20039;-73
2023/08/28 04:43:36;;;;;;;12.60;7.93;;;;;;;12.25;99.59;100855.19;4944339;28;20000;-74
2023/08/28 04:46:01;;;;;;;11.75;7.95;;;;;;;12.26;99.42;100856.81;4962023;28;20182;-73
2023/08/28 04:48:30;;;;;;;11.60;8.50;;;;;;;12.24;99.33;100864.34;4942109;28;20043;-75
2023/08/28 04:50:56;;;;;;;12.20;7.95;;;;;;;12.23;99.22;100857.38;4942920;28;20319;-73
2023/08/28 04:53:22;;;;;;;15.90;8.80;;;;;;;12.23;99.02;100865.41;4944077;28;20149;-73
2023/08/28 04:55:48;;;;;;;10.60;8.02;;;;;;;12.24;98.85;100861.66;4957580;28;20487;-76
2023/08/28 04:58:14;;;;;;;9.75;7.85;;;;;;;12.22;99.07;100858.44;4931077;28;20153;-72
2023/08/28 05:00:40;;;;;;;14.07;9.13;;;;;;;12.21;98.71;100854.16;4950898;28;20034;-73
2023/08/28 05:03:06;;;;;;;9.38;7.90;;;;;;;12.21;98.85;100859.53;4961286;28;20046;-73
2023/08/28 05:05:31;;;;;;;;;;;;;;;12.17;98.68;100866.53;4945970;28;20070;-73
2023/08/28 05:07:58;;;;;;;11.27;8.80;;;;;;;12.18;98.82;100859.28;4961184;28;19928;-73
2023/08/28 05:10:23;;;;;;;11.27;8.77;;;;;;;12.18;98.91;100846.66;4960035;28;20889;-75
2023/08/28 05:12:49;;;;;;;;;;;;;;;12.15;98.96;100841.03;4913765;28;20043;-73
2023/08/28 05:15:14;;;;;;;11.43;9.57;;;;;;;12.12;99.06;100836.22;4959490;28;20013;-74
2023/08/28 05:17:40;;;;;;;;;;;;;;;12.15;99.01;100844.53;4946866;28;20114;-72
2023/08/28 05:20:06;;;;;;;13.82;10.48;;;;;;;12.18;99.15;100845.84;4961914;28;19948;-77
2023/08/28 05:22:32;;;;;;;13.02;10.65;;;;;;;12.20;99.07;100847.19;4959750;28;20526;-72
2023/08/28 05:24:57;;;;;;;13.85;11.15;;;;;;;12.21;99.26;100830.00;4944138;28;20027;-73
2023/08/28 05:27:23;;;;;;;18.27;12.23;;;;;;;12.23;99.47;100838.56;4943493;28;20047;-74
2023/08/28 05:29:50;;;;;;;;;;;;;;;12.23;99.48;100819.78;4948389;28;20812;-74
2023/08/28 05:32:16;;;;;;;16.48;12.25;;;;;;;12.24;99.44;100823.25;4933447;28;19917;-73
2023/08/28 05:34:42;;;;;;;15.23;12.13;;;;;;;12.23;99.21;100818.97;4964878;28;20042;-72
2023/08/28 05:37:09;;;;;;;13.40;11.05;;;;;;;12.30;99.28;100819.47;4951732;28;20140;-72
2023/08/28 05:39:34;;;;;;;;;;;;;;;12.35;99.46;100827.50;4962083;28;20156;-73
2023/08/28 05:42:00;;;;;;;14.00;10.65;;;;;;;12.42;99.26;100821.81;4947814;28;19925;-72
2023/08/28 05:44:26;;;;;;;16.23;11.70;;;;;;;12.46;99.28;100829.03;4947640;28;20041;-73
2023/08/28 05:46:52;;;;;;;;;;;;;;;12.52;99.05;100827.09;4948228;28;20046;-73
2023/08/28 05:49:17;;;;;;;11.48;9.82;;;;;;;12.57;99.34;100827.06;4930598;28;19918;-74
2023/08/28 05:51:43;;;;;;;;;;;;;;;12.63;99.60;100823.25;4949095;28;20038;-74
2023/08/28 05:54:09;;;;;;;14.93;11.02;;;;;;;12.65;99.82;100823.75;4946867;28;20482;-73
2023/08/28 05:56:34;;;;;;;14.48;11.20;;;;;;;12.70;100.00;100812.97;4946697;28;20035;-73
2023/08/28 05:59:01;;;;;;;16.92;11.77;;;;;;;12.76;100.00;100821.81;4947646;28;20996;-72
2023/08/28 06:01:27;;;;;;;15.02;11.88;;;;;;;12.81;100.00;100824.47;4949734;28;20047;-74
2023/08/28 06:03:56;;;;;;;14.85;10.18;;;;;;;12.88;99.35;100819.56;4947434;28;20063;-72
2023/08/28 06:06:24;;;;;;;15.98;9.95;;;;;;;12.96;99.58;100826.19;4946461;28;20145;-73
2023/08/28 06:08:51;;;;;;;10.52;9.10;;;;;;;13.00;99.23;100827.22;4948657;28;20555;-73
2023/08/28 06:11:16;;;;;;;10.60;7.50;;;;;;;13.02;98.31;100825.88;4945166;28;20041;-72
2023/08/28 06:13:42;;;;;;;9.25;7.60;;;;;;;13.15;98.30;100824.41;4964260;28;20046;-72
2023/08/28 06:16:07;;;;;;;10.98;8.10;;;;;;;13.28;98.70;100821.06;4960400;28;20042;-73
2023/08/28 06:18:33;;;;;;;12.30;8.20;;;;;;;13.38;98.18;100823.63;4945393;28;20046;-73
2023/08/28 06:20:59;;;;;;;11.73;7.03;;;;;;;13.45;97.97;100827.88;4960914;28;20042;-73
2023/08/28 06:23:24;;;;;;;;;;;;;;;13.51;98.54;100815.97;4941488;28;20390;-72
2023/08/28 06:25:50;;;;;;;8.77;6.57;;;;;;;13.56;98.08;100814.03;4946491;28;19941;-73
2023/08/28 06:28:16;;;;;;;8.00;6.05;;;;;;;13.65;97.76;100830.34;4962713;28;20034;-72
2023/08/28 06:30:42;;;;;;;6.88;5.55;;;;;;;13.75;97.72;100835.59;4949523;28;20046;-74
2023/08/28 06:33:07;;;;;;;9.57;5.50;;;;;;;13.82;97.63;100846.81;4949087;28;20424;-73
2023/08/28 06:35:33;;;;;;;;;;;;;;;13.91;97.27;100837.00;4959980;28;20065;-71
2023/08/28 06:37:58;;;;;;;7.40;4.72;;;;;;;13.88;97.66;100834.88;4961251;28;19918;-72
2023/08/28 06:40:24;;;;;;;;;;;;;;;13.99;97.03;100842.81;4942004;28;20122;-73
2023/08/28 06:42:50;;;;;;;5.68;4.10;;;;;;;14.05;97.68;100849.75;4962337;28;20338;-72
2023/08/28 06:45:16;;;;;;;6.15;4.07;;;;;;;14.12;97.38;100847.50;4960191;28;20150;-74
2023/08/28 06:47:41;;;;;;;;;;;;;;;14.13;95.94;100843.72;4959884;28;20126;-74
2023/08/28 06:50:07;;;;;;;8.23;3.25;;;;;;;14.21;95.20;100851.13;4966781;28;19973;-73
2023/08/28 06:52:33;;;;;;;7.75;3.47;;;;;;;14.34;95.33;100853.09;4955548;28;20066;-75
2023/08/28 06:54:58;;;;;;;;;;;;;;;14.44;94.12;100855.66;4964457;28;20491;-72
2023/08/28 06:57:24;;;;;;;5.55;2.90;;;;;;;14.55;94.74;100866.28;4946875;28;19918;-76
2023/08/28 06:59:50;;;;;;;;;;;;;;;14.59;95.96;100868.13;4952069;28;20037;-74
2023/08/28 07:02:15;;;;;;;4.63;2.63;;;;;;;14.68;95.69;100870.94;4950462;28;19921;-75
2023/08/28 07:04:41;;;;;;;4.68;2.75;;;;;;;14.77;94.23;100874.59;4945326;28;20046;-74
2023/08/28 07:07:06;;;;;;;;;;;;;;;14.88;94.38;100875.22;4917496;28;20078;-74
2023/08/28 07:09:32;;;;;;;7.25;3.15;;;;;;;14.95;94.95;100881.81;4944488;28;19921;-75
2023/08/28 07:11:58;;;;;;;;;;;;;;;15.02;92.64;100884.94;4947287;28;20114;-76
2023/08/28 07:14:23;;;;;;;5.55;2.53;;;;;;;15.14;92.34;100879.09;4931071;28;20382;-75
2023/08/28 07:16:49;;;;;;;;;;;;;;;15.26;93.71;100894.81;4945696;28;20054;-75
2023/08/28 07:19:15;;;;;;;6.25;2.40;;;;;;;15.32;92.90;100890.91;4960146;28;19925;-74
2023/08/28 07:21:40;;;;;;;4.65;2.58;;;;;;;15.37;94.14;100898.91;4944088;28;20116;-76
2023/08/28 07:24:06;;;;;;;;;;;;;;;15.42;94.34;100908.81;4930996;28;20470;-74
2023/08/28 07:26:32;;;;;;;6.43;2.75;;;;;;;15.52;92.79;100898.63;4944079;28;19925;-77
2023/08/28 07:28:57;;;;;;;;;;;;;;;15.61;91.51;100897.94;4962437;28;20038;-77
2023/08/28 07:31:23;;;;;;;3.45;1.75;;;;;;;15.70;92.95;100906.97;4956384;28;19910;-74
2023/08/28 07:33:48;;;;;;;;;;;;;;;15.77;91.58;100908.16;4944620;28;20068;-76
2023/08/28 07:36:20;;;;;;;2.88;1.65;;;;;;;15.88;91.81;100914.19;4956306;28;19921;-75
2023/08/28 07:38:46;;;;;;;2.45;1.63;;;;;;;15.92;91.25;100917.88;4941842;28;20734;-75
2023/08/28 07:41:12;;;;;;;;;;;;;;;16.00;89.54;100919.88;4944287;28;20038;-75
2023/08/28 07:43:37;;;;;;;3.72;2.00;;;;;;;16.08;90.62;100921.88;4958089;28;19944;-75
2023/08/28 07:46:04;;;;;;;;;;;;;;;16.01;88.31;100929.56;4942612;28;20035;-76
2023/08/28 07:48:30;;;;;;;6.63;1.58;;;;;;;16.08;87.84;100938.06;4957886;28;20377;-75
2023/08/28 07:50:56;;;;;;;3.70;1.80;;;;;;;16.10;88.70;100933.16;4960977;28;20118;-76
2023/08/28 07:53:21;;;;;;;;;;;;;;;16.15;88.39;100940.38;4961248;28;20169;-76
2023/08/28 07:55:48;;;;;;;4.05;1.80;;;;;;;16.31;87.90;100932.72;4946479;28;21360;-76
2023/08/28 07:58:13;;;;;;;5.07;2.00;;;;;;;16.38;90.49;100944.72;4946028;28;20039;-75
2023/08/28 08:00:40;;;;;;;;;;;;;;;16.38;87.74;100943.94;4942292;28;20500;-76
2023/08/28 08:03:06;;;;;;;3.58;1.70;;;;;;;16.50;88.35;100946.13;4945842;28;19924;-76
2023/08/28 08:05:34;;;;;;;;;;;;;;;16.60;88.92;100951.31;4944236;28;20035;-77
2023/08/28 08:08:00;;;;;;;2.83;1.92;;;;;;;16.65;90.43;100959.28;4961140;28;19918;-76
2023/08/28 08:10:26;;;;;;;4.25;1.75;;;;;;;16.64;89.56;100966.59;4940045;28;20039;-77
2023/08/28 08:12:52;;;;;;;4.03;1.50;;;;;;;16.69;85.79;100962.19;4961234;28;20091;-77
2023/08/28 08:15:17;;;;;;;6.75;1.80;;;;;;;16.86;85.83;100965.06;4943445;28;20528;-76
2023/08/28 08:17:43;;;;;;;5.13;1.73;;;;;;;17.05;86.20;100973.81;4958494;28;20575;-75
2023/08/28 08:20:10;;;;;;;5.63;1.90;;;;;;;17.10;87.85;100973.69;4945291;28;20035;-78
2023/08/28 08:22:42;;;;;;;5.00;1.30;;;;;;;17.06;85.51;100971.91;4930594;28;20042;-77
2023/08/28 08:25:09;;;;;;;4.93;1.50;;;;;;;17.08;85.85;100973.22;4947971;28;20047;-76
2023/08/28 08:27:37;;;;;;;3.33;1.67;;;;;;;17.04;88.18;100966.81;4944617;28;20039;-76
2023/08/28 08:30:08;;;;;;;4.00;1.42;;;;;;;17.01;88.41;100964.72;4943484;28;20042;-75
2023/08/28 08:32:34;;;;;;;3.90;1.55;;;;;;;16.95;85.64;100962.44;4960676;28;20031;-75
2023/08/28 08:35:00;;;;;;;6.00;1.63;;;;;;;16.95;86.38;100967.84;4943196;28;20586;-76
2023/08/28 08:37:27;;;;;;;3.28;1.40;;;;;;;16.96;88.97;100974.88;4932304;28;20062;-76
2023/08/28 08:39:52;;;;;;;2.38;1.33;;;;;;;16.97;88.66;100982.66;4944803;28;20108;-75
2023/08/28 08:42:18;;;;;;;3.65;1.40;;;;;;;17.12;89.49;100976.88;4924830;28;20070;-76
2023/08/28 08:44:44;;;;;;;2.35;1.67;;;;;;;17.02;85.74;100966.31;4962053;28;20114;-76
2023/08/28 08:47:10;;;;;;;4.65;1.40;;;;;;;17.01;85.94;100972.84;4945499;28;20050;-75
2023/08/28 08:49:39;;;;;;;3.70;1.40;;;;;;;17.07;86.32;100978.91;4939888;28;20038;-76
2023/08/28 08:52:08;;;;;;;3.20;1.70;;;;;;;17.10;85.94;100970.19;4965765;28;20130;-76
2023/08/28 08:54:41;;;;;;;3.28;1.27;;;;;;;17.23;87.47;100980.16;4946171;28;20500;-76
2023/08/28 08:57:19;;;;;;;3.65;1.50;;;;;;;17.22;84.55;100975.06;4930283;28;20129;-76
2023/08/28 08:59:45;;;;;;;2.47;1.45;;;;;;;17.43;83.50;100978.84;4965903;28;20494;-77
2023/08/28 09:02:12;;;;;;;3.85;1.30;;;;;;;17.56;83.51;100967.13;4965494;28;20038;-76
2023/08/28 09:04:40;;;;;;;3.03;1.75;;;;;;;17.54;83.56;100977.47;4961865;28;20034;-76
2023/08/28 09:07:06;;;;;;;2.50;1.30;;;;;;;17.63;82.52;100967.50;4963906;28;20045;-76
2023/08/28 09:09:32;;;;;;;;;;;;;;;17.77;83.37;100972.84;4947152;28;20034;-76
2023/08/28 09:11:59;;;;;;;1.63;0.90;;;;;;;17.76;81.44;100959.63;4963278;28;19914;-75
2023/08/28 09:14:24;;;;;;;4.50;1.50;;;;;;;17.85;83.06;100968.56;4961131;28;20116;-74
2023/08/28 09:16:50;;;;;;;4.10;1.48;;;;;;;17.98;80.66;100973.06;4952360;28;20030;-75
2023/08/28 09:19:16;;;;;;;3.15;1.30;;;;;;;18.12;78.37;100972.97;4943698;28;20031;-77
2023/08/28 09:21:46;;;;;;;3.10;1.13;;;;;;;18.29;78.45;100967.59;4949570;28;20043;-75
2023/08/28 09:24:11;;;;;;;2.30;1.00;;;;;;;18.44;78.96;100959.00;4947648;28;20039;-76
2023/08/28 09:26:38;;;;;;;4.82;1.45;;;;;;;18.46;75.74;100962.19;4948422;28;20042;-75
2023/08/28 09:29:08;;;;;;;5.18;1.02;;;;;;;18.58;75.82;100967.00;4947510;28;20062;-77
2023/08/28 09:31:36;;;;;;;3.03;1.20;;;;;;;18.41;76.26;100980.53;4966090;28;20030;-76
2023/08/28 09:34:04;;;;;;;2.35;0.95;;;;;;;18.40;76.81;100981.63;4950578;28;20121;-75
2023/08/28 09:36:35;;;;;;;2.15;0.85;;;;;;;18.47;78.25;100979.25;4963686;28;20031;-75
2023/08/28 09:39:03;;;;;;;3.78;1.10;;;;;;;18.50;76.81;100976.72;4957356;28;20048;-78
2023/08/28 09:41:38;;;;;;;5.97;1.25;;;;;;;18.46;75.25;100977.66;4936861;28;20122;-75
2023/08/28 09:44:04;;;;;;;3.22;1.00;;;;;;;18.52;75.67;100971.78;4956701;28;20031;-75
2023/08/28 09:46:30;;;;;;;5.22;1.20;;;;;;;18.62;74.30;100973.38;4951956;28;20038;-76
2023/08/28 09:48:56;;;;;;;2.75;1.10;;;;;;;18.58;74.94;100975.13;4961951;28;20049;-75
2023/08/28 09:51:37;;;;;;;3.70;0.85;;;;;;;18.65;76.36;100970.03;4948083;28;20181;-75
2023/08/28 09:54:04;;;;;;;3.15;1.10;;;;;;;18.79;75.44;100975.34;4956058;28;20399;-76
2023/08/28 09:56:30;;;;;;;2.28;0.88;;;;;;;18.81;72.86;100978.53;4964749;28;20047;-76
2023/08/28 09:59:03;;;;;;;3.85;0.98;;;;;;;18.93;72.54;100975.97;4945292;28;20334;-76
2023/08/28 10:01:34;;;;;;;2.13;1.10;;;;;;;19.05;76.01;100984.28;4962746;28;20066;-77
2023/08/28 10:04:03;;;;;;;3.30;0.90;;;;;;;18.88;76.09;100981.56;4935851;28;20038;-79
2023/08/28 10:06:33;;;;;;;4.65;1.05;;;;;;;18.89;75.04;100969.56;4961795;28;20163;-78
2023/08/28 10:09:00;;;;;;;3.42;1.10;;;;;;;18.97;73.41;100973.44;4946558;28;20038;-76
2023/08/28 10:11:39;;;;;;;2.03;1.08;;;;;;;18.92;76.44;100973.59;4932445;28;20038;-77
2023/08/28 10:14:06;;;;;;;2.55;1.02;;;;;;;18.88;76.95;100978.03;4932767;28;20033;-77
2023/08/28 10:16:37;;;;;;;2.20;1.08;;;;;;;19.04;74.61;100979.19;4933764;28;20413;-78
2023/08/28 10:19:27;;;;;;;1.88;0.82;;;;;;;19.04;73.58;100976.47;4960260;28;20045;-76
2023/08/28 10:21:53;;;;;;;2.60;1.17;;;;;;;19.17;71.33;100975.50;4966797;28;20085;-77
2023/08/28 10:24:20;;;;;;;2.85;0.88;;;;;;;19.43;71.90;100982.75;4951461;28;20042;-77
2023/08/28 10:26:47;;;;;;;1.80;1.25;;;;;;;19.43;76.10;100982.75;4932720;28;20407;-77
2023/08/28 10:29:15;;;;;;;2.67;0.90;;;;;;;19.23;72.74;100981.53;4947004;28;20412;-79
2023/08/28 10:31:41;;;;;;;3.80;0.60;;;;;;;19.16;73.69;100984.72;4959067;28;20542;-75
2023/08/28 10:34:08;;;;;;;2.28;0.88;;;;;;;19.25;71.05;100982.03;4951014;28;20408;-75
2023/08/28 10:36:34;;;;;;;4.18;0.95;;;;;;;19.32;71.65;100983.13;4960275;28;20038;-76
2023/08/28 10:39:03;;;;;;;3.03;0.90;;;;;;;19.33;71.65;100986.63;4941437;28;20047;-76
2023/08/28 10:41:30;;;;;;;2.90;0.82;;;;;;;19.49;71.60;100981.47;4959430;28;20065;-75
2023/08/28 10:44:01;;;;;;;3.10;1.13;;;;;;;19.51;73.84;100985.47;4927348;28;20504;-76
2023/08/28 10:46:28;;;;;;;1.95;0.80;;;;;;;19.40;74.33;100978.00;4961994;28;20041;-77
2023/08/28 10:49:01;;;;;;;2.03;1.02;;;;;;;19.36;71.26;100985.97;4948672;28;20086;-77
2023/08/28 10:51:32;;;;;;;1.38;0.70;;;;;;;19.48;72.22;100975.25;4961099;28;20082;-78
2023/08/28 10:54:04;;;;;;;4.60;1.23;;;;;;;19.57;71.76;100980.66;4943960;28;20412;-77
2023/08/28 10:56:35;;;;;;;3.08;1.00;;;;;;;19.52;72.69;100983.56;4945254;28;20043;-77
2023/08/28 10:59:19;;;;;;;2.13;0.95;;;;;;;19.62;67.97;100980.50;4946208;28;20057;-77
2023/08/28 11:01:54;;;;;;;1.58;0.80;;;;;;;19.80;68.17;100982.06;4944610;28;20943;-79
2023/08/28 11:04:21;;;;;;;2.90;0.98;;;;;;;20.03;71.49;100984.50;4948591;28;20030;-79
2023/08/28 11:06:47;;;;;;;1.83;0.90;;;;;;;20.18;69.69;100981.22;4962596;28;20049;-77
2023/08/28 11:09:28;;;;;;;1.95;0.75;;;;;;;20.27;67.39;100984.72;4962715;28;20047;-75
2023/08/28 11:12:00;;;;;;;4.00;1.05;;;;;;;20.04;66.79;100986.09;4962634;28;20035;-77
2023/08/28 11:14:34;;;;;;;3.10;1.13;;;;;;;19.96;68.15;100995.88;4959930;28;20054;-78
2023/08/28 11:17:20;;;;;;;2.63;1.20;;;;;;;19.72;68.06;100977.47;4948764;28;20046;-77
2023/08/28 11:19:55;;;;;;;1.40;0.95;;;;;;;19.40;68.22;100978.00;4961748;28;20085;-76
2023/08/28 11:22:34;;;;;;;3.15;1.00;;;;;;;19.23;71.43;100978.81;4964209;28;20042;-77
2023/08/28 11:25:04;;;;;;;2.72;1.30;;;;;;;18.98;69.67;100980.44;4947221;28;20042;-77
2023/08/28 11:27:42;;;;;;;1.50;0.60;;;;;;;18.77;70.40;100967.53;4931869;28;20043;-76
2023/08/28 11:30:09;;;;;;;2.20;0.88;;;;;;;18.56;69.09;100961.09;4946732;28;20035;-77